Impacts METAR Board INFO
IDs:

KPIT - Pittsburgh Intl, PA, US

Updated at: 1734 UTC 18 Jan 2018
Potential Impact None Slight Moderate High
Time18/05Z 18/06Z 18/07Z 18/08Z 18/09Z 18/10Z 18/11Z 18/12Z 18/13Z 18/14Z 18/15Z 18/16Z 18/17Z
VIS10 10 10 9 10 10 10 10 10 10 10 10 10
CIG-- -- -- -- -- -- -- -- -- -- -- -- --
CoverCLRCLRCLRSCTSCTFEWSCTFEWFEWFEWFEWFEWCLR
FltCatVFRVFRVFRVFRVFRVFRVFRVFRVFRVFRVFRVFRVFR
WX--------------------------
WDir220210210210210200210210210220230230230
WSpd8 8 7 9 8 8 8 10 10 13 11 10 15
WGst-- -- -- -- -- -- -- -- -- 17 -- 17 22
Raw hourly METARs
KPIT 180451Z 22008KT 10SM CLR M13/M16 A3029 RMK AO2 SLP292 T11331161 410941183
KPIT 180551Z 21008KT 10SM CLR M13/M16 A3028 RMK AO2 SLP287 T11331161 11122 21133 56017
KPIT 180651Z 21007KT 10SM CLR M13/M16 A3026 RMK AO2 SLP281 T11331156
KPIT 180751Z 21009KT 9SM SCT150 M13/M16 A3026 RMK AO2 SLP279 T11331156
KPIT 180851Z 21008KT 10SM SCT160 M14/M16 A3024 RMK AO2 SLP274 T11391156 57012
KPIT 180951Z 20008KT 10SM FEW160 M14/M16 A3023 RMK AO2 SLP271 T11391156
KPIT 181051Z 21008KT 10SM SCT200 M13/M16 A3021 RMK AO2 SLP264 T11331156
KPIT 181151Z 21010KT 10SM FEW200 M13/M16 A3020 RMK AO2 SLP259 T11281156 11128 21139 58015
KPIT 181251Z 21010KT 10SM FEW130 FEW250 M13/M16 A3018 RMK AO2 SLP255 T11281156
KPIT 181351Z 22013G17KT 10SM FEW012 M12/M15 A3020 RMK AO2 SLP259 T11171150
KPIT 181451Z 23011KT 10SM FEW005 M10/M14 A3021 RMK AO2 SLP264 T11001144 53005
KPIT 181551Z 23010G17KT 10SM FEW008 M08/M14 A3022 RMK AO2 SLP266 T10831139
KPIT 181651Z 23015G22KT 10SM CLR M08/M14 A3018 RMK AO2 SLP253 T10781139